Main page
METAR-TAF:

METAR-TAF

Airports :

Ljubljana, Slovenia

Ljubljana Jože Pučnik Airport

latitude: 46-13N, longitude: 014-29E, elevation: 385 m

Current weather observation

The report was made 40 minutes ago, at 07:30 UTC
Calm wind
Temperature -5°C
Humidity 93%
Pressure 1028 hPa
Visibility 10 km or more
no clouds below 1500 m and no cumulonimbus

METAR: LJLJ 040730Z 00000KT CAVOK M05/M06 Q1028 NOSIG

Time: 09:10 (08:10 UTC)

Forecast

The report was made 3 hours and 10 minutes ago, at 05:00 UTC
Forecast valid from 04 at 06 UTC to 05 at 06 UTC
Wind 2 kt from variable directions
Visibility 10 km or more
Few clouds at a height of 6000 ft
Temporary
from 04 at 18 UTC to 05 at 06 UTC
Broken clouds at a height of 5000 ft

TAF: LJLJ 040500Z 0406/0506 VRB02KT 9999 FEW060 TEMPO 0418/0506 BKN050

Weather observations and forecasts of more than 4000 airports (METAR and TAF reports).

The available stations are represented by yellow and red dots on the map.

Hover mouse over dot to see the name of the station.

Then click to see weather observations and forecasts.

To change the map : click on the green buttons with a black cross to zoom in, on the green button with a dash to zoom out, or on the green arrows for adjacent maps.


METAR-TAF: